sensor_id;sensor_type;location;lat;lon;timestamp;P1;durP1;ratioP1;P2;durP2;ratioP2
48679;SDS011;34475;51.658;5.634;2022-10-31T00:00:01;0.7;;;0.7;;
48679;SDS011;34475;51.658;5.634;2022-10-31T00:01:01;0.7;;;0.7;;
48679;SDS011;34475;51.658;5.634;2022-10-31T00:02:00;0.7;;;0.7;;
48679;SDS011;34475;51.658;5.634;2022-10-31T00:03:00;0.7;;;0.7;;
48679;SDS011;34475;51.658;5.634;2022-10-31T00:04:00;0.7;;;0.7;;
48679;SDS011;34475;51.658;5.634;2022-10-31T00:05:00;0.7;;;0.7;;
48679;SDS011;34475;51.658;5.634;2022-10-31T00:06:01;0.7;;;0.7;;
48679;SDS011;34475;51.658;5.634;2022-10-31T00:07:00;0.7;;;0.7;;
48679;SDS011;34475;51.658;5.634;2022-10-31T00:08:00;0.7;;;0.7;;
48679;SDS011;34475;51.658;5.634;2022-10-31T00:09:01;0.7;;;0.7;;
48679;SDS011;34475;51.658;5.634;2022-10-31T00:10:00;0.7;;;0.7;;
48679;SDS011;34475;51.658;5.634;2022-10-31T00:11:00;0.7;;;0.7;;
48679;SDS011;34475;51.658;5.634;2022-10-31T00:12:00;0.7;;;0.7;;
48679;SDS011;34475;51.658;5.634;2022-10-31T00:13:00;0.7;;;0.7;;
48679;SDS011;34475;51.658;5.634;2022-10-31T00:14:00;0.7;;;0.7;;
48679;SDS011;34475;51.658;5.634;2022-10-31T00:15:00;0.5;;;0.5;;
48679;SDS011;34475;51.658;5.634;2022-10-31T00:16:00;0.5;;;0.5;;
48679;SDS011;34475;51.658;5.634;2022-10-31T00:17:00;0.5;;;0.5;;
48679;SDS011;34475;51.658;5.634;2022-10-31T00:18:01;0.5;;;0.5;;
48679;SDS011;34475;51.658;5.634;2022-10-31T00:19:02;0.5;;;0.5;;
48679;SDS011;34475;51.658;5.634;2022-10-31T00:20:00;0.5;;;0.5;;
48679;SDS011;34475;51.658;5.634;2022-10-31T00:21:01;0.5;;;0.5;;
48679;SDS011;34475;51.658;5.634;2022-10-31T00:22:00;0.5;;;0.5;;
48679;SDS011;34475;51.658;5.634;2022-10-31T00:23:00;0.5;;;0.5;;
48679;SDS011;34475;51.658;5.634;2022-10-31T00:24:00;0.5;;;0.5;;
48679;SDS011;34475;51.658;5.634;2022-10-31T00:25:00;0.5;;;0.5;;
48679;SDS011;34475;51.658;5.634;2022-10-31T00:26:02;0.5;;;0.5;;
48679;SDS011;34475;51.658;5.634;2022-10-31T00:27:00;0.5;;;0.5;;
48679;SDS011;34475;51.658;5.634;2022-10-31T00:28:01;0.5;;;0.5;;
48679;SDS011;34475;51.658;5.634;2022-10-31T00:29:00;0.5;;;0.5;;
48679;SDS011;34475;51.658;5.634;2022-10-31T00:30:00;0.5;;;0.5;;
48679;SDS011;34475;51.658;5.634;2022-10-31T00:31:03;0.5;;;0.5;;
48679;SDS011;34475;51.658;5.634;2022-10-31T00:32:00;0.5;;;0.5;;
48679;SDS011;34475;51.658;5.634;2022-10-31T00:33:00;0.5;;;0.5;;
48679;SDS011;34475;51.658;5.634;2022-10-31T00:34:02;0.5;;;0.5;;
48679;SDS011;34475;51.658;5.634;2022-10-31T00:35:00;0.6;;;0.6;;
48679;SDS011;34475;51.658;5.634;2022-10-31T00:36:00;0.6;;;0.6;;
48679;SDS011;34475;51.658;5.634;2022-10-31T00:37:00;0.6;;;0.6;;
48679;SDS011;34475;51.658;5.634;2022-10-31T00:38:00;0.6;;;0.6;;
48679;SDS011;34475;51.658;5.634;2022-10-31T00:39:01;0.6;;;0.6;;
48679;SDS011;34475;51.658;5.634;2022-10-31T00:40:00;0.6;;;0.6;;
48679;SDS011;34475;51.658;5.634;2022-10-31T00:41:00;0.6;;;0.6;;
48679;SDS011;34475;51.658;5.634;2022-10-31T00:42:00;0.6;;;0.6;;
48679;SDS011;34475;51.658;5.634;2022-10-31T00:43:01;0.6;;;0.6;;
48679;SDS011;34475;51.658;5.634;2022-10-31T00:44:00;0.6;;;0.6;;
48679;SDS011;34475;51.658;5.634;2022-10-31T00:45:00;0.6;;;0.6;;
48679;SDS011;34475;51.658;5.634;2022-10-31T00:46:00;0.6;;;0.6;;
48679;SDS011;34475;51.658;5.634;2022-10-31T00:47:00;0.6;;;0.6;;
48679;SDS011;34475;51.658;5.634;2022-10-31T00:48:00;0.6;;;0.6;;
48679;SDS011;34475;51.658;5.634;2022-10-31T00:49:00;0.6;;;0.6;;
48679;SDS011;34475;51.658;5.634;2022-10-31T00:50:00;0.6;;;0.6;;
48679;SDS011;34475;51.658;5.634;2022-10-31T00:51:00;0.6;;;0.6;;
48679;SDS011;34475;51.658;5.634;2022-10-31T00:52:00;0.6;;;0.6;;
48679;SDS011;34475;51.658;5.634;2022-10-31T00:53:00;0.6;;;0.6;;
48679;SDS011;34475;51.658;5.634;2022-10-31T00:54:00;0.6;;;0.6;;
48679;SDS011;34475;51.658;5.634;2022-10-31T00:55:00;0.6;;;0.6;;
48679;SDS011;34475;51.658;5.634;2022-10-31T00:56:00;0.6;;;0.6;;
48679;SDS011;34475;51.658;5.634;2022-10-31T00:57:00;0.6;;;0.6;;
48679;SDS011;34475;51.658;5.634;2022-10-31T00:58:00;0.6;;;0.6;;
48679;SDS011;34475;51.658;5.634;2022-10-31T00:59:00;0.6;;;0.6;;
48679;SDS011;34475;51.658;5.634;2022-10-31T01:00:00;0.6;;;0.6;;
48679;SDS011;34475;51.658;5.634;2022-10-31T01:01:00;0.6;;;0.6;;
48679;SDS011;34475;51.658;5.634;2022-10-31T01:02:00;0.6;;;0.6;;
48679;SDS011;34475;51.658;5.634;2022-10-31T01:03:00;0.6;;;0.6;;
48679;SDS011;34475;51.658;5.634;2022-10-31T01:04:00;0.6;;;0.6;;
48679;SDS011;34475;51.658;5.634;2022-10-31T01:05:00;0.6;;;0.6;;
48679;SDS011;34475;51.658;5.634;2022-10-31T01:06:04;0.6;;;0.6;;
48679;SDS011;34475;51.658;5.634;2022-10-31T01:07:00;0.6;;;0.6;;
48679;SDS011;34475;51.658;5.634;2022-10-31T01:08:00;0.6;;;0.6;;
48679;SDS011;34475;51.658;5.634;2022-10-31T01:09:00;0.6;;;0.6;;
48679;SDS011;34475;51.658;5.634;2022-10-31T01:10:00;0.6;;;0.6;;
48679;SDS011;34475;51.658;5.634;2022-10-31T01:12:00;0.6;;;0.6;;
48679;SDS011;34475;51.658;5.634;2022-10-31T01:13:00;0.6;;;0.6;;
48679;SDS011;34475;51.658;5.634;2022-10-31T01:14:00;0.6;;;0.6;;
48679;SDS011;34475;51.658;5.634;2022-10-31T01:15:00;0.5;;;0.5;;
48679;SDS011;34475;51.658;5.634;2022-10-31T01:16:01;0.5;;;0.5;;
48679;SDS011;34475;51.658;5.634;2022-10-31T01:17:00;0.5;;;0.5;;
48679;SDS011;34475;51.658;5.634;2022-10-31T01:18:00;0.5;;;0.5;;
48679;SDS011;34475;51.658;5.634;2022-10-31T01:19:00;0.5;;;0.5;;
48679;SDS011;34475;51.658;5.634;2022-10-31T01:20:00;0.5;;;0.5;;
48679;SDS011;34475;51.658;5.634;2022-10-31T01:21:02;0.5;;;0.5;;
48679;SDS011;34475;51.658;5.634;2022-10-31T01:22:00;0.5;;;0.5;;
48679;SDS011;34475;51.658;5.634;2022-10-31T01:23:00;0.5;;;0.5;;
48679;SDS011;34475;51.658;5.634;2022-10-31T01:24:02;0.5;;;0.5;;
48679;SDS011;34475;51.658;5.634;2022-10-31T01:25:00;0.5;;;0.5;;
48679;SDS011;34475;51.658;5.634;2022-10-31T01:26:06;0.5;;;0.5;;
48679;SDS011;34475;51.658;5.634;2022-10-31T01:27:00;0.5;;;0.5;;
48679;SDS011;34475;51.658;5.634;2022-10-31T01:28:01;0.5;;;0.5;;
48679;SDS011;34475;51.658;5.634;2022-10-31T01:29:04;0.5;;;0.5;;
48679;SDS011;34475;51.658;5.634;2022-10-31T01:30:00;0.5;;;0.5;;
48679;SDS011;34475;51.658;5.634;2022-10-31T01:31:01;0.5;;;0.5;;
48679;SDS011;34475;51.658;5.634;2022-10-31T01:32:00;0.5;;;0.5;;
48679;SDS011;34475;51.658;5.634;2022-10-31T01:33:00;0.5;;;0.5;;
48679;SDS011;34475;51.658;5.634;2022-10-31T01:34:00;0.5;;;0.5;;
48679;SDS011;34475;51.658;5.634;2022-10-31T01:35:00;0.5;;;0.5;;
48679;SDS011;34475;51.658;5.634;2022-10-31T01:36:00;0.5;;;0.5;;
48679;SDS011;34475;51.658;5.634;2022-10-31T01:37:00;0.5;;;0.5;;
48679;SDS011;34475;51.658;5.634;2022-10-31T01:38:00;0.5;;;0.5;;
48679;SDS011;34475;51.658;5.634;2022-10-31T01:39:03;0.5;;;0.5;;
48679;SDS011;34475;51.658;5.634;2022-10-31T01:40:00;0.5;;;0.5;;
48679;SDS011;34475;51.658;5.634;2022-10-31T01:41:00;0.5;;;0.5;;
48679;SDS011;34475;51.658;5.634;2022-10-31T01:42:00;0.5;;;0.5;;
48679;SDS011;34475;51.658;5.634;2022-10-31T01:43:00;0.5;;;0.5;;
48679;SDS011;34475;51.658;5.634;2022-10-31T01:44:03;0.5;;;0.5;;
48679;SDS011;34475;51.658;5.634;2022-10-31T01:45:01;0.5;;;0.5;;
48679;SDS011;34475;51.658;5.634;2022-10-31T01:46:00;0.5;;;0.5;;
48679;SDS011;34475;51.658;5.634;2022-10-31T01:47:07;0.5;;;0.5;;
48679;SDS011;34475;51.658;5.634;2022-10-31T01:48:00;0.5;;;0.5;;
48679;SDS011;34475;51.658;5.634;2022-10-31T01:49:04;0.5;;;0.5;;
48679;SDS011;34475;51.658;5.634;2022-10-31T01:50:04;0.5;;;0.5;;
48679;SDS011;34475;51.658;5.634;2022-10-31T01:51:00;0.5;;;0.5;;
48679;SDS011;34475;51.658;5.634;2022-10-31T01:52:04;0.5;;;0.5;;
48679;SDS011;34475;51.658;5.634;2022-10-31T01:53:00;0.5;;;0.5;;
48679;SDS011;34475;51.658;5.634;2022-10-31T01:54:04;0.5;;;0.5;;
48679;SDS011;34475;51.658;5.634;2022-10-31T01:55:04;0.4;;;0.4;;
48679;SDS011;34475;51.658;5.634;2022-10-31T01:56:00;0.4;;;0.4;;
48679;SDS011;34475;51.658;5.634;2022-10-31T01:57:01;0.4;;;0.4;;
48679;SDS011;34475;51.658;5.634;2022-10-31T01:58:11;0.4;;;0.4;;
48679;SDS011;34475;51.658;5.634;2022-10-31T01:59:02;0.4;;;0.4;;
48679;SDS011;34475;51.658;5.634;2022-10-31T02:00:03;0.4;;;0.4;;
48679;SDS011;34475;51.658;5.634;2022-10-31T02:01:07;0.4;;;0.4;;
48679;SDS011;34475;51.658;5.634;2022-10-31T02:02:00;0.4;;;0.4;;
48679;SDS011;34475;51.658;5.634;2022-10-31T02:03:01;0.4;;;0.4;;
48679;SDS011;34475;51.658;5.634;2022-10-31T02:04:00;0.4;;;0.4;;
48679;SDS011;34475;51.658;5.634;2022-10-31T02:05:02;0.4;;;0.4;;
48679;SDS011;34475;51.658;5.634;2022-10-31T02:06:00;0.4;;;0.4;;
48679;SDS011;34475;51.658;5.634;2022-10-31T02:07:05;0.4;;;0.4;;
48679;SDS011;34475;51.658;5.634;2022-10-31T02:08:13;0.4;;;0.4;;
48679;SDS011;34475;51.658;5.634;2022-10-31T02:09:01;0.4;;;0.4;;
48679;SDS011;34475;51.658;5.634;2022-10-31T02:10:00;0.4;;;0.4;;
48679;SDS011;34475;51.658;5.634;2022-10-31T02:11:01;0.4;;;0.4;;
48679;SDS011;34475;51.658;5.634;2022-10-31T02:12:00;0.4;;;0.4;;
48679;SDS011;34475;51.658;5.634;2022-10-31T02:13:04;0.4;;;0.4;;
48679;SDS011;34475;51.658;5.634;2022-10-31T02:14:02;0.4;;;0.4;;
48679;SDS011;34475;51.658;5.634;2022-10-31T02:15:00;0.6;;;0.6;;
48679;SDS011;34475;51.658;5.634;2022-10-31T02:16:00;0.6;;;0.6;;
48679;SDS011;34475;51.658;5.634;2022-10-31T02:17:00;0.6;;;0.6;;
48679;SDS011;34475;51.658;5.634;2022-10-31T02:18:01;0.6;;;0.6;;
48679;SDS011;34475;51.658;5.634;2022-10-31T02:19:00;0.6;;;0.6;;
48679;SDS011;34475;51.658;5.634;2022-10-31T02:22:10;0.6;;;0.6;;
48679;SDS011;34475;51.658;5.634;2022-10-31T02:23:06;0.6;;;0.6;;
48679;SDS011;34475;51.658;5.634;2022-10-31T02:24:08;0.6;;;0.6;;
48679;SDS011;34475;51.658;5.634;2022-10-31T02:28:07;0.6;;;0.6;;
48679;SDS011;34475;51.658;5.634;2022-10-31T02:29:05;0.6;;;0.6;;
48679;SDS011;34475;51.658;5.634;2022-10-31T02:30:05;0.6;;;0.6;;
48679;SDS011;34475;51.658;5.634;2022-10-31T02:31:12;0.6;;;0.6;;
48679;SDS011;34475;51.658;5.634;2022-10-31T02:33:05;0.6;;;0.6;;
48679;SDS011;34475;51.658;5.634;2022-10-31T02:34:05;0.6;;;0.6;;
48679;SDS011;34475;51.658;5.634;2022-10-31T02:37:20;1.2;;;1.2;;
48679;SDS011;34475;51.658;5.634;2022-10-31T02:38:07;1.2;;;1.2;;
48679;SDS011;34475;51.658;5.634;2022-10-31T02:40:21;1.2;;;1.2;;
48679;SDS011;34475;51.658;5.634;2022-10-31T02:41:05;1.2;;;1.2;;
48679;SDS011;34475;51.658;5.634;2022-10-31T02:42:14;1.2;;;1.2;;
48679;SDS011;34475;51.658;5.634;2022-10-31T02:43:17;1.2;;;1.2;;
48679;SDS011;34475;51.658;5.634;2022-10-31T02:45:01;1.2;;;1.2;;
48679;SDS011;34475;51.658;5.634;2022-10-31T02:46:12;1.2;;;1.2;;
48679;SDS011;34475;51.658;5.634;2022-10-31T02:47:17;1.2;;;1.2;;
48679;SDS011;34475;51.658;5.634;2022-10-31T02:48:04;1.2;;;1.2;;
48679;SDS011;34475;51.658;5.634;2022-10-31T02:49:05;1.2;;;1.2;;
48679;SDS011;34475;51.658;5.634;2022-10-31T02:51:01;1.2;;;1.2;;
48679;SDS011;34475;51.658;5.634;2022-10-31T02:52:00;1.2;;;1.2;;
48679;SDS011;34475;51.658;5.634;2022-10-31T02:53:01;1.2;;;1.2;;
48679;SDS011;34475;51.658;5.634;2022-10-31T02:54:00;1.2;;;1.2;;
48679;SDS011;34475;51.658;5.634;2022-10-31T02:55:11;0.7;;;0.7;;
48679;SDS011;34475;51.658;5.634;2022-10-31T02:56:05;0.7;;;0.7;;
48679;SDS011;34475;51.658;5.634;2022-10-31T02:57:03;0.7;;;0.7;;
48679;SDS011;34475;51.658;5.634;2022-10-31T02:58:04;0.7;;;0.7;;
48679;SDS011;34475;51.658;5.634;2022-10-31T02:59:02;0.7;;;0.7;;
48679;SDS011;34475;51.658;5.634;2022-10-31T03:00:04;0.7;;;0.7;;
48679;SDS011;34475;51.658;5.634;2022-10-31T03:01:18;0.7;;;0.7;;
48679;SDS011;34475;51.658;5.634;2022-10-31T03:02:06;0.7;;;0.7;;
48679;SDS011;34475;51.658;5.634;2022-10-31T03:03:12;0.7;;;0.7;;
48679;SDS011;34475;51.658;5.634;2022-10-31T03:04:14;0.7;;;0.7;;
48679;SDS011;34475;51.658;5.634;2022-10-31T03:06:08;0.7;;;0.7;;
48679;SDS011;34475;51.658;5.634;2022-10-31T03:07:07;0.7;;;0.7;;
48679;SDS011;34475;51.658;5.634;2022-10-31T03:08:06;0.7;;;0.7;;
48679;SDS011;34475;51.658;5.634;2022-10-31T03:09:11;0.7;;;0.7;;
48679;SDS011;34475;51.658;5.634;2022-10-31T03:11:02;0.7;;;0.7;;
48679;SDS011;34475;51.658;5.634;2022-10-31T03:12:07;0.7;;;0.7;;
48679;SDS011;34475;51.658;5.634;2022-10-31T03:13:08;0.7;;;0.7;;
48679;SDS011;34475;51.658;5.634;2022-10-31T03:14:10;0.7;;;0.7;;
48679;SDS011;34475;51.658;5.634;2022-10-31T03:16:07;10.7;;;2.0;;
48679;SDS011;34475;51.658;5.634;2022-10-31T03:17:02;10.7;;;2.0;;
48679;SDS011;34475;51.658;5.634;2022-10-31T03:18:08;10.7;;;2.0;;
48679;SDS011;34475;51.658;5.634;2022-10-31T03:19:03;10.7;;;2.0;;
48679;SDS011;34475;51.658;5.634;2022-10-31T03:20:01;10.7;;;2.0;;
48679;SDS011;34475;51.658;5.634;2022-10-31T03:22:02;10.7;;;2.0;;
48679;SDS011;34475;51.658;5.634;2022-10-31T03:23:01;10.7;;;2.0;;
48679;SDS011;34475;51.658;5.634;2022-10-31T03:24:01;10.7;;;2.0;;
48679;SDS011;34475;51.658;5.634;2022-10-31T03:25:02;10.7;;;2.0;;
48679;SDS011;34475;51.658;5.634;2022-10-31T03:26:02;10.7;;;2.0;;
48679;SDS011;34475;51.658;5.634;2022-10-31T03:27:01;10.7;;;2.0;;
48679;SDS011;34475;51.658;5.634;2022-10-31T03:28:02;10.7;;;2.0;;
48679;SDS011;34475;51.658;5.634;2022-10-31T03:29:03;10.7;;;2.0;;
48679;SDS011;34475;51.658;5.634;2022-10-31T03:30:03;10.7;;;2.0;;
48679;SDS011;34475;51.658;5.634;2022-10-31T03:31:06;10.7;;;2.0;;
48679;SDS011;34475;51.658;5.634;2022-10-31T03:32:03;10.7;;;2.0;;
48679;SDS011;34475;51.658;5.634;2022-10-31T03:33:04;10.7;;;2.0;;
48679;SDS011;34475;51.658;5.634;2022-10-31T03:34:01;10.7;;;2.0;;
48679;SDS011;34475;51.658;5.634;2022-10-31T03:35:03;2.0;;;1.9;;
48679;SDS011;34475;51.658;5.634;2022-10-31T03:36:03;2.0;;;1.9;;
48679;SDS011;34475;51.658;5.634;2022-10-31T03:37:02;2.0;;;1.9;;
48679;SDS011;34475;51.658;5.634;2022-10-31T03:38:06;2.0;;;1.9;;
48679;SDS011;34475;51.658;5.634;2022-10-31T03:39:02;2.0;;;1.9;;
48679;SDS011;34475;51.658;5.634;2022-10-31T03:40:01;2.0;;;1.9;;
48679;SDS011;34475;51.658;5.634;2022-10-31T03:41:02;2.0;;;1.9;;
48679;SDS011;34475;51.658;5.634;2022-10-31T03:42:05;2.0;;;1.9;;
48679;SDS011;34475;51.658;5.634;2022-10-31T03:43:04;2.0;;;1.9;;
48679;SDS011;34475;51.658;5.634;2022-10-31T03:44:04;2.0;;;1.9;;
48679;SDS011;34475;51.658;5.634;2022-10-31T03:45:06;2.0;;;1.9;;
48679;SDS011;34475;51.658;5.634;2022-10-31T03:46:00;2.0;;;1.9;;
48679;SDS011;34475;51.658;5.634;2022-10-31T03:47:01;2.0;;;1.9;;
48679;SDS011;34475;51.658;5.634;2022-10-31T03:48:01;2.0;;;1.9;;
48679;SDS011;34475;51.658;5.634;2022-10-31T03:49:01;2.0;;;1.9;;
48679;SDS011;34475;51.658;5.634;2022-10-31T03:50:00;2.0;;;1.9;;
48679;SDS011;34475;51.658;5.634;2022-10-31T03:53:06;2.0;;;1.9;;
48679;SDS011;34475;51.658;5.634;2022-10-31T03:54:05;2.0;;;1.9;;
48679;SDS011;34475;51.658;5.634;2022-10-31T03:55:07;0.7;;;0.7;;
48679;SDS011;34475;51.658;5.634;2022-10-31T03:56:05;0.7;;;0.7;;
48679;SDS011;34475;51.658;5.634;2022-10-31T03:58:04;0.7;;;0.7;;
48679;SDS011;34475;51.658;5.634;2022-10-31T03:59:05;0.7;;;0.7;;
48679;SDS011;34475;51.658;5.634;2022-10-31T04:00:04;0.7;;;0.7;;
48679;SDS011;34475;51.658;5.634;2022-10-31T04:01:02;0.7;;;0.7;;
48679;SDS011;34475;51.658;5.634;2022-10-31T04:02:05;0.7;;;0.7;;
48679;SDS011;34475;51.658;5.634;2022-10-31T04:03:07;0.7;;;0.7;;
48679;SDS011;34475;51.658;5.634;2022-10-31T04:04:01;0.7;;;0.7;;
48679;SDS011;34475;51.658;5.634;2022-10-31T04:05:00;0.7;;;0.7;;
48679;SDS011;34475;51.658;5.634;2022-10-31T04:06:04;0.7;;;0.7;;
48679;SDS011;34475;51.658;5.634;2022-10-31T04:07:01;0.7;;;0.7;;
48679;SDS011;34475;51.658;5.634;2022-10-31T04:08:03;0.7;;;0.7;;
48679;SDS011;34475;51.658;5.634;2022-10-31T04:09:03;0.7;;;0.7;;
48679;SDS011;34475;51.658;5.634;2022-10-31T04:10:02;0.7;;;0.7;;
48679;SDS011;34475;51.658;5.634;2022-10-31T04:11:02;0.7;;;0.7;;
48679;SDS011;34475;51.658;5.634;2022-10-31T04:12:00;0.7;;;0.7;;
48679;SDS011;34475;51.658;5.634;2022-10-31T04:13:06;0.7;;;0.7;;
48679;SDS011;34475;51.658;5.634;2022-10-31T04:14:01;0.7;;;0.7;;
48679;SDS011;34475;51.658;5.634;2022-10-31T04:15:01;0.5;;;0.5;;
48679;SDS011;34475;51.658;5.634;2022-10-31T04:16:00;0.5;;;0.5;;
48679;SDS011;34475;51.658;5.634;2022-10-31T04:17:01;0.5;;;0.5;;
48679;SDS011;34475;51.658;5.634;2022-10-31T04:18:01;0.5;;;0.5;;
48679;SDS011;34475;51.658;5.634;2022-10-31T04:19:00;0.5;;;0.5;;
48679;SDS011;34475;51.658;5.634;2022-10-31T04:20:00;0.5;;;0.5;;
48679;SDS011;34475;51.658;5.634;2022-10-31T04:21:02;0.5;;;0.5;;
48679;SDS011;34475;51.658;5.634;2022-10-31T04:22:00;0.5;;;0.5;;
48679;SDS011;34475;51.658;5.634;2022-10-31T04:23:01;0.5;;;0.5;;
48679;SDS011;34475;51.658;5.634;2022-10-31T04:24:00;0.5;;;0.5;;
48679;SDS011;34475;51.658;5.634;2022-10-31T04:25:00;0.5;;;0.5;;
48679;SDS011;34475;51.658;5.634;2022-10-31T04:26:00;0.5;;;0.5;;
48679;SDS011;34475;51.658;5.634;2022-10-31T04:27:00;0.5;;;0.5;;
48679;SDS011;34475;51.658;5.634;2022-10-31T04:28:00;0.5;;;0.5;;
48679;SDS011;34475;51.658;5.634;2022-10-31T04:29:00;0.5;;;0.5;;
48679;SDS011;34475;51.658;5.634;2022-10-31T04:30:00;0.5;;;0.5;;
48679;SDS011;34475;51.658;5.634;2022-10-31T04:31:00;0.5;;;0.5;;
48679;SDS011;34475;51.658;5.634;2022-10-31T04:32:00;0.5;;;0.5;;
48679;SDS011;34475;51.658;5.634;2022-10-31T04:33:00;0.5;;;0.5;;
48679;SDS011;34475;51.658;5.634;2022-10-31T04:34:00;0.5;;;0.5;;
48679;SDS011;34475;51.658;5.634;2022-10-31T04:35:00;0.7;;;0.7;;
48679;SDS011;34475;51.658;5.634;2022-10-31T04:36:00;0.7;;;0.7;;
48679;SDS011;34475;51.658;5.634;2022-10-31T04:37:00;0.7;;;0.7;;
48679;SDS011;34475;51.658;5.634;2022-10-31T04:38:00;0.7;;;0.7;;
48679;SDS011;34475;51.658;5.634;2022-10-31T04:39:00;0.7;;;0.7;;
48679;SDS011;34475;51.658;5.634;2022-10-31T04:40:00;0.7;;;0.7;;
48679;SDS011;34475;51.658;5.634;2022-10-31T04:41:00;0.7;;;0.7;;
48679;SDS011;34475;51.658;5.634;2022-10-31T04:42:00;0.7;;;0.7;;
48679;SDS011;34475;51.658;5.634;2022-10-31T04:43:00;0.7;;;0.7;;
48679;SDS011;34475;51.658;5.634;2022-10-31T04:44:00;0.7;;;0.7;;
48679;SDS011;34475;51.658;5.634;2022-10-31T04:45:00;0.7;;;0.7;;
48679;SDS011;34475;51.658;5.634;2022-10-31T04:46:00;0.7;;;0.7;;
48679;SDS011;34475;51.658;5.634;2022-10-31T04:47:00;0.7;;;0.7;;
48679;SDS011;34475;51.658;5.634;2022-10-31T04:48:00;0.7;;;0.7;;
48679;SDS011;34475;51.658;5.634;2022-10-31T04:49:00;0.7;;;0.7;;
48679;SDS011;34475;51.658;5.634;2022-10-31T04:50:01;0.7;;;0.7;;
48679;SDS011;34475;51.658;5.634;2022-10-31T04:51:01;0.7;;;0.7;;
48679;SDS011;34475;51.658;5.634;2022-10-31T04:52:00;0.7;;;0.7;;
48679;SDS011;34475;51.658;5.634;2022-10-31T04:53:00;0.7;;;0.7;;
48679;SDS011;34475;51.658;5.634;2022-10-31T04:54:00;0.9;;;0.9;;
48679;SDS011;34475;51.658;5.634;2022-10-31T04:55:00;0.9;;;0.9;;
48679;SDS011;34475;51.658;5.634;2022-10-31T04:56:00;0.9;;;0.9;;
48679;SDS011;34475;51.658;5.634;2022-10-31T04:57:00;0.9;;;0.9;;
48679;SDS011;34475;51.658;5.634;2022-10-31T04:58:01;0.9;;;0.9;;
48679;SDS011;34475;51.658;5.634;2022-10-31T04:59:00;0.9;;;0.9;;
48679;SDS011;34475;51.658;5.634;2022-10-31T05:00:00;0.9;;;0.9;;
48679;SDS011;34475;51.658;5.634;2022-10-31T05:01:00;0.9;;;0.9;;
48679;SDS011;34475;51.658;5.634;2022-10-31T05:02:00;0.9;;;0.9;;
48679;SDS011;34475;51.658;5.634;2022-10-31T05:03:00;0.9;;;0.9;;
48679;SDS011;34475;51.658;5.634;2022-10-31T05:04:00;0.9;;;0.9;;
48679;SDS011;34475;51.658;5.634;2022-10-31T05:05:00;0.9;;;0.9;;
48679;SDS011;34475;51.658;5.634;2022-10-31T05:06:00;0.9;;;0.9;;
48679;SDS011;34475;51.658;5.634;2022-10-31T05:07:00;0.9;;;0.9;;
48679;SDS011;34475;51.658;5.634;2022-10-31T05:08:00;0.9;;;0.9;;
48679;SDS011;34475;51.658;5.634;2022-10-31T05:09:00;0.9;;;0.9;;
48679;SDS011;34475;51.658;5.634;2022-10-31T05:10:00;0.9;;;0.9;;
48679;SDS011;34475;51.658;5.634;2022-10-31T05:11:05;0.9;;;0.9;;
48679;SDS011;34475;51.658;5.634;2022-10-31T05:12:00;0.9;;;0.9;;
48679;SDS011;34475;51.658;5.634;2022-10-31T05:13:02;0.9;;;0.9;;
48679;SDS011;34475;51.658;5.634;2022-10-31T05:14:00;2.4;;;1.5;;
48679;SDS011;34475;51.658;5.634;2022-10-31T05:15:00;2.4;;;1.5;;
48679;SDS011;34475;51.658;5.634;2022-10-31T05:16:00;2.4;;;1.5;;
48679;SDS011;34475;51.658;5.634;2022-10-31T05:17:00;2.4;;;1.5;;
48679;SDS011;34475;51.658;5.634;2022-10-31T05:18:01;2.4;;;1.5;;
48679;SDS011;34475;51.658;5.634;2022-10-31T05:19:00;2.4;;;1.5;;
48679;SDS011;34475;51.658;5.634;2022-10-31T05:20:00;2.4;;;1.5;;
48679;SDS011;34475;51.658;5.634;2022-10-31T05:21:00;2.4;;;1.5;;
48679;SDS011;34475;51.658;5.634;2022-10-31T05:22:00;2.4;;;1.5;;
48679;SDS011;34475;51.658;5.634;2022-10-31T05:23:00;2.4;;;1.5;;
48679;SDS011;34475;51.658;5.634;2022-10-31T05:24:00;2.4;;;1.5;;
48679;SDS011;34475;51.658;5.634;2022-10-31T05:25:00;2.4;;;1.5;;
48679;SDS011;34475;51.658;5.634;2022-10-31T05:26:00;2.4;;;1.5;;
48679;SDS011;34475;51.658;5.634;2022-10-31T05:27:00;2.4;;;1.5;;
48679;SDS011;34475;51.658;5.634;2022-10-31T05:28:00;2.4;;;1.5;;
48679;SDS011;34475;51.658;5.634;2022-10-31T05:29:00;2.4;;;1.5;;
48679;SDS011;34475;51.658;5.634;2022-10-31T05:30:00;2.4;;;1.5;;
48679;SDS011;34475;51.658;5.634;2022-10-31T05:31:00;2.4;;;1.5;;
48679;SDS011;34475;51.658;5.634;2022-10-31T05:32:00;2.4;;;1.5;;
48679;SDS011;34475;51.658;5.634;2022-10-31T05:33:00;2.4;;;1.5;;
48679;SDS011;34475;51.658;5.634;2022-10-31T05:34:00;0.6;;;0.6;;
48679;SDS011;34475;51.658;5.634;2022-10-31T05:35:00;0.6;;;0.6;;
48679;SDS011;34475;51.658;5.634;2022-10-31T05:36:00;0.6;;;0.6;;
48679;SDS011;34475;51.658;5.634;2022-10-31T05:37:00;0.6;;;0.6;;
48679;SDS011;34475;51.658;5.634;2022-10-31T05:38:00;0.6;;;0.6;;
48679;SDS011;34475;51.658;5.634;2022-10-31T05:39:00;0.6;;;0.6;;
48679;SDS011;34475;51.658;5.634;2022-10-31T05:40:09;0.6;;;0.6;;
48679;SDS011;34475;51.658;5.634;2022-10-31T05:41:01;0.6;;;0.6;;
48679;SDS011;34475;51.658;5.634;2022-10-31T05:42:00;0.6;;;0.6;;
48679;SDS011;34475;51.658;5.634;2022-10-31T05:43:00;0.6;;;0.6;;
48679;SDS011;34475;51.658;5.634;2022-10-31T05:44:00;0.6;;;0.6;;
48679;SDS011;34475;51.658;5.634;2022-10-31T05:45:00;0.6;;;0.6;;
48679;SDS011;34475;51.658;5.634;2022-10-31T05:46:00;0.6;;;0.6;;
48679;SDS011;34475;51.658;5.634;2022-10-31T05:47:00;0.6;;;0.6;;
48679;SDS011;34475;51.658;5.634;2022-10-31T05:48:01;0.6;;;0.6;;
48679;SDS011;34475;51.658;5.634;2022-10-31T05:49:02;0.6;;;0.6;;
48679;SDS011;34475;51.658;5.634;2022-10-31T05:50:00;0.6;;;0.6;;
48679;SDS011;34475;51.658;5.634;2022-10-31T05:51:00;0.6;;;0.6;;
48679;SDS011;34475;51.658;5.634;2022-10-31T05:52:00;0.6;;;0.6;;
48679;SDS011;34475;51.658;5.634;2022-10-31T05:53:02;0.6;;;0.6;;
48679;SDS011;34475;51.658;5.634;2022-10-31T05:54:00;0.8;;;0.8;;
48679;SDS011;34475;51.658;5.634;2022-10-31T05:55:00;0.8;;;0.8;;
48679;SDS011;34475;51.658;5.634;2022-10-31T05:56:00;0.8;;;0.8;;
48679;SDS011;34475;51.658;5.634;2022-10-31T05:57:00;0.8;;;0.8;;
48679;SDS011;34475;51.658;5.634;2022-10-31T05:58:00;0.8;;;0.8;;
48679;SDS011;34475;51.658;5.634;2022-10-31T05:59:00;0.8;;;0.8;;
48679;SDS011;34475;51.658;5.634;2022-10-31T06:00:00;0.8;;;0.8;;
48679;SDS011;34475;51.658;5.634;2022-10-31T06:01:00;0.8;;;0.8;;
48679;SDS011;34475;51.658;5.634;2022-10-31T06:02:00;0.8;;;0.8;;
48679;SDS011;34475;51.658;5.634;2022-10-31T06:03:03;0.8;;;0.8;;
48679;SDS011;34475;51.658;5.634;2022-10-31T06:04:00;0.8;;;0.8;;
48679;SDS011;34475;51.658;5.634;2022-10-31T06:05:01;0.8;;;0.8;;
48679;SDS011;34475;51.658;5.634;2022-10-31T06:06:00;0.8;;;0.8;;
48679;SDS011;34475;51.658;5.634;2022-10-31T06:07:00;0.8;;;0.8;;
48679;SDS011;34475;51.658;5.634;2022-10-31T06:08:01;0.8;;;0.8;;
48679;SDS011;34475;51.658;5.634;2022-10-31T06:09:00;0.8;;;0.8;;
48679;SDS011;34475;51.658;5.634;2022-10-31T06:10:00;0.8;;;0.8;;
48679;SDS011;34475;51.658;5.634;2022-10-31T06:11:00;0.8;;;0.8;;
48679;SDS011;34475;51.658;5.634;2022-10-31T06:12:00;0.8;;;0.8;;
48679;SDS011;34475;51.658;5.634;2022-10-31T06:13:00;0.8;;;0.8;;
48679;SDS011;34475;51.658;5.634;2022-10-31T06:14:00;0.8;;;0.8;;
48679;SDS011;34475;51.658;5.634;2022-10-31T06:15:00;0.8;;;0.8;;
48679;SDS011;34475;51.658;5.634;2022-10-31T06:16:00;0.8;;;0.8;;
48679;SDS011;34475;51.658;5.634;2022-10-31T06:17:00;0.8;;;0.8;;
48679;SDS011;34475;51.658;5.634;2022-10-31T06:18:02;0.8;;;0.8;;
48679;SDS011;34475;51.658;5.634;2022-10-31T06:19:00;0.8;;;0.8;;
48679;SDS011;34475;51.658;5.634;2022-10-31T06:20:00;0.8;;;0.8;;
48679;SDS011;34475;51.658;5.634;2022-10-31T06:21:00;0.8;;;0.8;;
48679;SDS011;34475;51.658;5.634;2022-10-31T06:22:00;0.8;;;0.8;;
48679;SDS011;34475;51.658;5.634;2022-10-31T06:23:01;0.8;;;0.8;;
48679;SDS011;34475;51.658;5.634;2022-10-31T06:24:00;0.8;;;0.8;;
48679;SDS011;34475;51.658;5.634;2022-10-31T06:25:00;0.8;;;0.8;;
48679;SDS011;34475;51.658;5.634;2022-10-31T06:26:00;0.8;;;0.8;;
48679;SDS011;34475;51.658;5.634;2022-10-31T06:27:00;0.8;;;0.8;;
48679;SDS011;34475;51.658;5.634;2022-10-31T06:28:00;0.8;;;0.8;;
48679;SDS011;34475;51.658;5.634;2022-10-31T06:29:04;0.8;;;0.8;;
48679;SDS011;34475;51.658;5.634;2022-10-31T06:30:00;0.8;;;0.8;;
48679;SDS011;34475;51.658;5.634;2022-10-31T06:31:00;0.8;;;0.8;;